sensor_id;sensor_type;location;lat;lon;timestamp;pressure;altitude;pressure_sealevel;temperature;humidity
47082;BME280;33066;49.296;14.470;2023-04-06T00:01:08;97328.35;;;5.73;32.86
47082;BME280;33066;49.296;14.470;2023-04-06T00:03:33;97328.40;;;5.25;32.95
47082;BME280;33066;49.296;14.470;2023-04-06T00:05:59;97330.03;;;5.22;32.85
47082;BME280;33066;49.296;14.470;2023-04-06T00:08:24;97330.07;;;5.62;32.95
47082;BME280;33066;49.296;14.470;2023-04-06T00:10:50;97330.93;;;5.42;33.15
47082;BME280;33066;49.296;14.470;2023-04-06T00:13:15;97328.70;;;5.37;33.11
47082;BME280;33066;49.296;14.470;2023-04-06T00:15:41;97326.26;;;5.48;33.28
47082;BME280;33066;49.296;14.470;2023-04-06T00:18:06;97328.60;;;4.94;33.31
47082;BME280;33066;49.296;14.470;2023-04-06T00:20:32;97328.89;;;4.94;33.55
47082;BME280;33066;49.296;14.470;2023-04-06T00:22:58;97324.41;;;5.05;33.75
47082;BME280;33066;49.296;14.470;2023-04-06T00:25:24;97323.16;;;4.94;33.92
47082;BME280;33066;49.296;14.470;2023-04-06T00:27:49;97321.68;;;4.90;34.01
47082;BME280;33066;49.296;14.470;2023-04-06T00:30:14;97319.13;;;5.20;33.86
47082;BME280;33066;49.296;14.470;2023-04-06T00:32:39;97317.51;;;5.22;33.74
47082;BME280;33066;49.296;14.470;2023-04-06T00:35:06;97317.01;;;5.45;33.29
47082;BME280;33066;49.296;14.470;2023-04-06T00:37:30;97315.29;;;5.58;33.13
47082;BME280;33066;49.296;14.470;2023-04-06T00:39:56;97312.18;;;5.63;32.96
47082;BME280;33066;49.296;14.470;2023-04-06T00:42:22;97310.55;;;5.41;33.06
47082;BME280;33066;49.296;14.470;2023-04-06T00:44:47;97310.79;;;5.27;33.40
47082;BME280;33066;49.296;14.470;2023-04-06T00:47:12;97308.19;;;5.21;33.54
47082;BME280;33066;49.296;14.470;2023-04-06T00:49:38;97307.58;;;5.17;33.58
47082;BME280;33066;49.296;14.470;2023-04-06T00:52:03;97306.12;;;4.95;33.38
47082;BME280;33066;49.296;14.470;2023-04-06T00:54:29;97304.62;;;5.09;33.54
47082;BME280;33066;49.296;14.470;2023-04-06T00:56:55;97305.59;;;5.13;33.50
47082;BME280;33066;49.296;14.470;2023-04-06T00:59:20;97304.35;;;4.99;33.47
47082;BME280;33066;49.296;14.470;2023-04-06T01:01:45;97304.02;;;5.28;33.72
47082;BME280;33066;49.296;14.470;2023-04-06T01:04:11;97304.00;;;4.86;33.88
47082;BME280;33066;49.296;14.470;2023-04-06T01:06:37;97304.88;;;4.92;34.06
47082;BME280;33066;49.296;14.470;2023-04-06T01:09:03;97303.57;;;4.57;34.03
47082;BME280;33066;49.296;14.470;2023-04-06T01:11:28;97303.65;;;4.78;33.98
47082;BME280;33066;49.296;14.470;2023-04-06T01:13:54;97302.58;;;4.87;34.33
47082;BME280;33066;49.296;14.470;2023-04-06T01:16:19;97299.72;;;4.50;34.19
47082;BME280;33066;49.296;14.470;2023-04-06T01:18:44;97295.97;;;4.80;34.31
47082;BME280;33066;49.296;14.470;2023-04-06T01:21:10;97295.85;;;4.19;34.43
47082;BME280;33066;49.296;14.470;2023-04-06T01:23:35;97294.48;;;4.20;34.40
47082;BME280;33066;49.296;14.470;2023-04-06T01:26:00;97292.87;;;4.87;34.36
47082;BME280;33066;49.296;14.470;2023-04-06T01:28:26;97290.52;;;4.76;34.10
47082;BME280;33066;49.296;14.470;2023-04-06T01:30:51;97289.69;;;4.53;33.97
47082;BME280;33066;49.296;14.470;2023-04-06T01:33:16;97289.73;;;4.72;33.84
47082;BME280;33066;49.296;14.470;2023-04-06T01:35:42;97289.25;;;4.93;33.46
47082;BME280;33066;49.296;14.470;2023-04-06T01:38:07;97289.57;;;5.00;33.30
47082;BME280;33066;49.296;14.470;2023-04-06T01:40:32;97290.00;;;5.17;33.35
47082;BME280;33066;49.296;14.470;2023-04-06T01:42:57;97285.98;;;4.82;33.38
47082;BME280;33066;49.296;14.470;2023-04-06T01:45:23;97283.46;;;4.77;33.39
47082;BME280;33066;49.296;14.470;2023-04-06T01:47:48;97280.32;;;4.96;33.38
47082;BME280;33066;49.296;14.470;2023-04-06T01:50:13;97282.31;;;4.88;33.43
47082;BME280;33066;49.296;14.470;2023-04-06T01:52:38;97282.40;;;4.97;33.41
47082;BME280;33066;49.296;14.470;2023-04-06T01:55:04;97282.30;;;4.84;33.38
47082;BME280;33066;49.296;14.470;2023-04-06T01:57:30;97280.95;;;4.99;33.17
47082;BME280;33066;49.296;14.470;2023-04-06T01:59:55;97279.05;;;4.94;33.06
47082;BME280;33066;49.296;14.470;2023-04-06T02:02:21;97278.84;;;4.95;33.01
47082;BME280;33066;49.296;14.470;2023-04-06T02:04:46;97277.10;;;4.94;33.05
47082;BME280;33066;49.296;14.470;2023-04-06T02:07:11;97274.23;;;4.84;33.19
47082;BME280;33066;49.296;14.470;2023-04-06T02:09:36;97274.76;;;4.62;33.55
47082;BME280;33066;49.296;14.470;2023-04-06T02:12:03;97275.86;;;4.66;33.80
47082;BME280;33066;49.296;14.470;2023-04-06T02:14:28;97278.68;;;4.62;33.74
47082;BME280;33066;49.296;14.470;2023-04-06T02:16:54;97274.42;;;4.69;33.53
47082;BME280;33066;49.296;14.470;2023-04-06T02:19:19;97273.67;;;4.68;33.52
47082;BME280;33066;49.296;14.470;2023-04-06T02:21:45;97272.80;;;4.83;33.60
47082;BME280;33066;49.296;14.470;2023-04-06T02:24:10;97272.93;;;4.54;33.77
47082;BME280;33066;49.296;14.470;2023-04-06T02:26:35;97277.42;;;4.61;33.98
47082;BME280;33066;49.296;14.470;2023-04-06T02:29:01;97278.63;;;4.07;34.03
47082;BME280;33066;49.296;14.470;2023-04-06T02:31:27;97282.23;;;4.45;34.25
47082;BME280;33066;49.296;14.470;2023-04-06T02:33:53;97282.94;;;4.58;33.93
47082;BME280;33066;49.296;14.470;2023-04-06T02:36:18;97285.15;;;4.42;33.57
47082;BME280;33066;49.296;14.470;2023-04-06T02:38:43;97285.55;;;4.44;33.42
47082;BME280;33066;49.296;14.470;2023-04-06T02:41:08;97282.34;;;4.75;33.22
47082;BME280;33066;49.296;14.470;2023-04-06T02:43:34;97286.24;;;4.76;33.32
47082;BME280;33066;49.296;14.470;2023-04-06T02:45:59;97284.73;;;4.79;33.29
47082;BME280;33066;49.296;14.470;2023-04-06T02:48:24;97284.01;;;4.59;33.22
47082;BME280;33066;49.296;14.470;2023-04-06T02:50:50;97284.28;;;4.71;33.11
47082;BME280;33066;49.296;14.470;2023-04-06T02:53:15;97283.31;;;4.48;33.02
47082;BME280;33066;49.296;14.470;2023-04-06T02:55:40;97283.88;;;4.88;33.15
47082;BME280;33066;49.296;14.470;2023-04-06T02:58:06;97287.79;;;4.67;33.13
47082;BME280;33066;49.296;14.470;2023-04-06T03:00:31;97289.03;;;4.67;33.02
47082;BME280;33066;49.296;14.470;2023-04-06T03:02:57;97293.49;;;4.56;33.09
47082;BME280;33066;49.296;14.470;2023-04-06T03:05:22;97294.57;;;4.71;33.23
47082;BME280;33066;49.296;14.470;2023-04-06T03:07:48;97294.23;;;4.46;33.60
47082;BME280;33066;49.296;14.470;2023-04-06T03:12:59;97296.18;;;4.07;33.51
47082;BME280;33066;49.296;14.470;2023-04-06T03:15:24;97301.02;;;4.22;33.89
47082;BME280;33066;49.296;14.470;2023-04-06T03:17:50;97305.32;;;3.72;34.09
47082;BME280;33066;49.296;14.470;2023-04-06T03:20:15;97304.26;;;3.93;34.14
47082;BME280;33066;49.296;14.470;2023-04-06T03:22:41;97302.43;;;3.80;34.27
47082;BME280;33066;49.296;14.470;2023-04-06T03:25:07;97299.20;;;3.68;34.25
47082;BME280;33066;49.296;14.470;2023-04-06T03:27:32;97301.07;;;3.43;34.16
47082;BME280;33066;49.296;14.470;2023-04-06T03:29:58;97301.31;;;3.88;34.03
47082;BME280;33066;49.296;14.470;2023-04-06T03:32:23;97298.74;;;4.02;34.03
47082;BME280;33066;49.296;14.470;2023-04-06T03:34:48;97299.14;;;4.08;34.01
47082;BME280;33066;49.296;14.470;2023-04-06T03:37:14;97302.16;;;4.04;34.25
47082;BME280;33066;49.296;14.470;2023-04-06T03:39:39;97305.15;;;4.06;34.31
47082;BME280;33066;49.296;14.470;2023-04-06T03:42:04;97305.93;;;4.06;34.19
47082;BME280;33066;49.296;14.470;2023-04-06T03:44:30;97304.22;;;4.02;34.13
47082;BME280;33066;49.296;14.470;2023-04-06T03:46:55;97305.00;;;3.97;34.11
47082;BME280;33066;49.296;14.470;2023-04-06T03:49:21;97310.67;;;3.68;34.20
47082;BME280;33066;49.296;14.470;2023-04-06T03:51:46;97310.44;;;3.86;34.20
47082;BME280;33066;49.296;14.470;2023-04-06T03:54:11;97314.00;;;3.67;34.31
47082;BME280;33066;49.296;14.470;2023-04-06T03:56:37;97319.30;;;3.47;34.38
47082;BME280;33066;49.296;14.470;2023-04-06T03:59:03;97324.07;;;3.87;34.58
47082;BME280;33066;49.296;14.470;2023-04-06T04:01:28;97321.29;;;3.67;34.64
47082;BME280;33066;49.296;14.470;2023-04-06T04:03:54;97324.26;;;3.98;34.43
47082;BME280;33066;49.296;14.470;2023-04-06T04:06:19;97326.09;;;4.01;33.89
47082;BME280;33066;49.296;14.470;2023-04-06T04:08:45;97326.36;;;4.20;34.02
47082;BME280;33066;49.296;14.470;2023-04-06T04:11:10;97326.09;;;4.03;33.82
47082;BME280;33066;49.296;14.470;2023-04-06T04:13:36;97324.15;;;4.19;33.60
47082;BME280;33066;49.296;14.470;2023-04-06T04:16:02;97326.13;;;4.31;33.60
47082;BME280;33066;49.296;14.470;2023-04-06T04:18:28;97327.67;;;4.10;33.90
47082;BME280;33066;49.296;14.470;2023-04-06T04:20:53;97326.18;;;4.17;33.89
47082;BME280;33066;49.296;14.470;2023-04-06T04:23:18;97326.93;;;4.21;34.30
47082;BME280;33066;49.296;14.470;2023-04-06T04:25:44;97323.64;;;4.26;33.91
47082;BME280;33066;49.296;14.470;2023-04-06T04:28:09;97323.13;;;4.13;34.53
47082;BME280;33066;49.296;14.470;2023-04-06T04:30:34;97326.62;;;4.22;33.95
47082;BME280;33066;49.296;14.470;2023-04-06T04:33:00;97328.95;;;4.34;33.79
47082;BME280;33066;49.296;14.470;2023-04-06T04:35:26;97329.90;;;4.48;33.76
47082;BME280;33066;49.296;14.470;2023-04-06T04:37:51;97332.49;;;4.86;33.78
47082;BME280;33066;49.296;14.470;2023-04-06T04:40:17;97331.76;;;4.57;34.04
47082;BME280;33066;49.296;14.470;2023-04-06T04:42:42;97330.05;;;4.84;33.65
47082;BME280;33066;49.296;14.470;2023-04-06T04:45:08;97334.54;;;4.59;33.41
47082;BME280;33066;49.296;14.470;2023-04-06T04:47:34;97335.45;;;4.44;33.28
47082;BME280;33066;49.296;14.470;2023-04-06T04:49:58;97338.10;;;4.69;33.44
47082;BME280;33066;49.296;14.470;2023-04-06T04:52:23;97335.69;;;4.50;32.96
47082;BME280;33066;49.296;14.470;2023-04-06T04:54:48;97334.75;;;4.33;33.03
47082;BME280;33066;49.296;14.470;2023-04-06T04:57:14;97337.42;;;4.33;33.40
47082;BME280;33066;49.296;14.470;2023-04-06T04:59:40;97336.89;;;4.13;33.48
47082;BME280;33066;49.296;14.470;2023-04-06T05:02:05;97337.07;;;4.06;33.59
47082;BME280;33066;49.296;14.470;2023-04-06T05:04:30;97338.72;;;4.38;33.54
47082;BME280;33066;49.296;14.470;2023-04-06T05:07:04;97341.07;;;4.11;33.45
47082;BME280;33066;49.296;14.470;2023-04-06T05:09:20;97342.75;;;4.12;33.46
47082;BME280;33066;49.296;14.470;2023-04-06T05:11:46;97341.07;;;4.02;33.46
47082;BME280;33066;49.296;14.470;2023-04-06T05:14:11;97343.67;;;4.40;33.37
47082;BME280;33066;49.296;14.470;2023-04-06T05:16:37;97342.80;;;4.60;33.22
47082;BME280;33066;49.296;14.470;2023-04-06T05:19:03;97339.09;;;4.69;33.13
47082;BME280;33066;49.296;14.470;2023-04-06T05:21:28;97338.92;;;4.70;33.15
47082;BME280;33066;49.296;14.470;2023-04-06T05:23:53;97339.81;;;4.68;33.12
47082;BME280;33066;49.296;14.470;2023-04-06T05:26:18;97341.04;;;4.48;32.91
47082;BME280;33066;49.296;14.470;2023-04-06T05:28:44;97341.56;;;4.48;33.14
47082;BME280;33066;49.296;14.470;2023-04-06T05:31:10;97343.71;;;4.82;33.10
47082;BME280;33066;49.296;14.470;2023-04-06T05:33:34;97343.13;;;4.94;33.18
47082;BME280;33066;49.296;14.470;2023-04-06T05:35:59;97340.62;;;4.84;33.19
47082;BME280;33066;49.296;14.470;2023-04-06T05:38:26;97339.83;;;5.25;33.06
47082;BME280;33066;49.296;14.470;2023-04-06T05:40:50;97342.52;;;5.16;32.82
47082;BME280;33066;49.296;14.470;2023-04-06T05:43:16;97343.50;;;5.11;32.82
47082;BME280;33066;49.296;14.470;2023-04-06T05:45:41;97346.14;;;5.01;32.97
47082;BME280;33066;49.296;14.470;2023-04-06T05:48:06;97345.26;;;5.27;32.76
47082;BME280;33066;49.296;14.470;2023-04-06T05:50:32;97345.09;;;5.30;32.70
47082;BME280;33066;49.296;14.470;2023-04-06T05:52:58;97347.53;;;5.10;32.92
47082;BME280;33066;49.296;14.470;2023-04-06T05:55:23;97349.63;;;4.84;33.22
47082;BME280;33066;49.296;14.470;2023-04-06T05:57:49;97351.23;;;4.89;33.30
47082;BME280;33066;49.296;14.470;2023-04-06T06:00:15;97353.65;;;4.86;33.42
47082;BME280;33066;49.296;14.470;2023-04-06T06:02:40;97355.03;;;5.09;33.84
47082;BME280;33066;49.296;14.470;2023-04-06T06:05:06;97354.78;;;5.37;33.85
47082;BME280;33066;49.296;14.470;2023-04-06T06:07:31;97354.78;;;5.59;33.56
47082;BME280;33066;49.296;14.470;2023-04-06T06:09:57;97356.31;;;5.56;33.20
47082;BME280;33066;49.296;14.470;2023-04-06T06:12:23;97360.00;;;5.82;33.37
47082;BME280;33066;49.296;14.470;2023-04-06T06:14:48;97359.88;;;6.11;33.21
47082;BME280;33066;49.296;14.470;2023-04-06T06:17:13;97360.29;;;5.87;33.19
47082;BME280;33066;49.296;14.470;2023-04-06T06:19:39;97359.93;;;5.68;33.41
47082;BME280;33066;49.296;14.470;2023-04-06T06:22:05;97357.16;;;6.03;33.40
47082;BME280;33066;49.296;14.470;2023-04-06T06:24:30;97353.66;;;5.76;32.96
47082;BME280;33066;49.296;14.470;2023-04-06T06:26:55;97351.37;;;5.88;32.98
47082;BME280;33066;49.296;14.470;2023-04-06T06:29:21;97348.55;;;6.00;33.10
47082;BME280;33066;49.296;14.470;2023-04-06T06:31:47;97345.45;;;6.07;33.25
47082;BME280;33066;49.296;14.470;2023-04-06T06:34:12;97343.34;;;6.32;33.58
47082;BME280;33066;49.296;14.470;2023-04-06T06:36:38;97344.90;;;6.47;32.64
47082;BME280;33066;49.296;14.470;2023-04-06T06:39:03;97342.00;;;6.51;32.14
47082;BME280;33066;49.296;14.470;2023-04-06T06:41:29;97340.37;;;6.59;32.26
47082;BME280;33066;49.296;14.470;2023-04-06T06:43:55;97340.81;;;6.58;31.97
47082;BME280;33066;49.296;14.470;2023-04-06T06:46:20;97340.70;;;6.37;32.02
47082;BME280;33066;49.296;14.470;2023-04-06T06:48:46;97339.96;;;6.66;32.60
47082;BME280;33066;49.296;14.470;2023-04-06T06:51:11;97339.05;;;6.77;33.11
47082;BME280;33066;49.296;14.470;2023-04-06T06:53:37;97339.01;;;6.68;32.83
47082;BME280;33066;49.296;14.470;2023-04-06T06:56:02;97337.11;;;6.80;32.04
47082;BME280;33066;49.296;14.470;2023-04-06T06:58:28;97337.62;;;6.92;32.12
47082;BME280;33066;49.296;14.470;2023-04-06T07:00:56;97340.04;;;7.27;32.38
47082;BME280;33066;49.296;14.470;2023-04-06T07:03:19;97340.07;;;7.44;31.66
47082;BME280;33066;49.296;14.470;2023-04-06T07:05:46;97340.90;;;7.07;31.35
47082;BME280;33066;49.296;14.470;2023-04-06T07:08:10;97337.30;;;7.13;31.50
47082;BME280;33066;49.296;14.470;2023-04-06T07:10:36;97339.54;;;7.52;31.55
47082;BME280;33066;49.296;14.470;2023-04-06T07:13:01;97339.58;;;7.72;31.23
47082;BME280;33066;49.296;14.470;2023-04-06T07:15:27;97342.00;;;7.60;30.88
47082;BME280;33066;49.296;14.470;2023-04-06T07:17:52;97343.36;;;7.59;30.88
47082;BME280;33066;49.296;14.470;2023-04-06T07:20:17;97340.30;;;7.69;30.79
47082;BME280;33066;49.296;14.470;2023-04-06T07:22:43;97338.28;;;7.71;30.58
47082;BME280;33066;49.296;14.470;2023-04-06T07:25:08;97340.44;;;7.57;30.36
47082;BME280;33066;49.296;14.470;2023-04-06T07:27:33;97340.28;;;7.94;30.23
47082;BME280;33066;49.296;14.470;2023-04-06T07:29:59;97340.84;;;7.77;30.00
47082;BME280;33066;49.296;14.470;2023-04-06T07:32:24;97339.08;;;8.08;29.85
47082;BME280;33066;49.296;14.470;2023-04-06T07:34:50;97341.07;;;7.92;29.75
47082;BME280;33066;49.296;14.470;2023-04-06T07:37:16;97342.08;;;8.23;29.70
47082;BME280;33066;49.296;14.470;2023-04-06T07:39:40;97337.57;;;8.11;29.59
47082;BME280;33066;49.296;14.470;2023-04-06T07:42:06;97333.54;;;7.97;29.41
47082;BME280;33066;49.296;14.470;2023-04-06T07:44:32;97331.39;;;8.02;29.53
47082;BME280;33066;49.296;14.470;2023-04-06T07:46:57;97330.20;;;8.35;29.58
47082;BME280;33066;49.296;14.470;2023-04-06T07:49:22;97330.03;;;8.28;29.79
47082;BME280;33066;49.296;14.470;2023-04-06T07:51:48;97327.00;;;8.68;29.94
47082;BME280;33066;49.296;14.470;2023-04-06T07:54:14;97328.92;;;8.55;29.73
47082;BME280;33066;49.296;14.470;2023-04-06T07:56:39;97328.54;;;8.47;29.71
47082;BME280;33066;49.296;14.470;2023-04-06T07:59:04;97329.47;;;8.65;29.83
47082;BME280;33066;49.296;14.470;2023-04-06T08:01:30;97326.41;;;8.80;30.13
47082;BME280;33066;49.296;14.470;2023-04-06T08:03:56;97325.17;;;8.88;31.81
47082;BME280;33066;49.296;14.470;2023-04-06T08:06:21;97323.95;;;9.03;30.36
47082;BME280;33066;49.296;14.470;2023-04-06T08:08:46;97324.02;;;9.10;30.53
47082;BME280;33066;49.296;14.470;2023-04-06T08:11:12;97324.60;;;8.95;30.79
47082;BME280;33066;49.296;14.470;2023-04-06T08:13:37;97323.17;;;9.36;30.61
47082;BME280;33066;49.296;14.470;2023-04-06T08:16:03;97321.62;;;9.43;29.13
47082;BME280;33066;49.296;14.470;2023-04-06T08:18:28;97323.09;;;9.51;29.93
47082;BME280;33066;49.296;14.470;2023-04-06T08:20:55;97321.89;;;9.33;28.66
47082;BME280;33066;49.296;14.470;2023-04-06T08:23:20;97318.10;;;9.68;28.65
47082;BME280;33066;49.296;14.470;2023-04-06T08:25:45;97317.85;;;9.33;29.05
47082;BME280;33066;49.296;14.470;2023-04-06T08:28:10;97317.24;;;9.50;28.45
47082;BME280;33066;49.296;14.470;2023-04-06T08:30:36;97317.59;;;9.77;27.23
47082;BME280;33066;49.296;14.470;2023-04-06T08:33:02;97316.24;;;9.55;27.09
47082;BME280;33066;49.296;14.470;2023-04-06T08:35:27;97316.63;;;9.58;26.23
47082;BME280;33066;49.296;14.470;2023-04-06T08:37:52;97314.29;;;9.90;26.68
47082;BME280;33066;49.296;14.470;2023-04-06T08:40:17;97313.07;;;9.73;26.79
47082;BME280;33066;49.296;14.470;2023-04-06T08:42:49;97310.45;;;9.81;25.59
47082;BME280;33066;49.296;14.470;2023-04-06T08:45:09;97306.94;;;9.57;25.09
47082;BME280;33066;49.296;14.470;2023-04-06T08:47:34;97306.93;;;9.44;25.02
47082;BME280;33066;49.296;14.470;2023-04-06T08:50:03;97303.67;;;9.53;25.19
47082;BME280;33066;49.296;14.470;2023-04-06T08:52:25;97299.76;;;9.66;25.38
47082;BME280;33066;49.296;14.470;2023-04-06T08:54:50;97300.79;;;9.90;26.72
47082;BME280;33066;49.296;14.470;2023-04-06T08:57:16;97296.66;;;10.08;26.67
47082;BME280;33066;49.296;14.470;2023-04-06T08:59:41;97292.60;;;10.22;25.07
47082;BME280;33066;49.296;14.470;2023-04-06T09:02:06;97294.07;;;10.40;24.53
47082;BME280;33066;49.296;14.470;2023-04-06T09:04:33;97296.96;;;9.80;24.24
47082;BME280;33066;49.296;14.470;2023-04-06T09:06:57;97291.53;;;9.61;24.05
47082;BME280;33066;49.296;14.470;2023-04-06T09:09:22;97288.55;;;9.97;24.08
47082;BME280;33066;49.296;14.470;2023-04-06T09:11:50;97288.33;;;10.09;24.33
47082;BME280;33066;49.296;14.470;2023-04-06T09:14:14;97288.42;;;9.99;24.03
47082;BME280;33066;49.296;14.470;2023-04-06T09:16:39;97288.15;;;10.20;23.75
47082;BME280;33066;49.296;14.470;2023-04-06T09:19:04;97286.07;;;10.61;23.76
47082;BME280;33066;49.296;14.470;2023-04-06T09:21:30;97289.30;;;10.20;23.92
47082;BME280;33066;49.296;14.470;2023-04-06T09:23:59;97283.62;;;10.17;23.98
47082;BME280;33066;49.296;14.470;2023-04-06T09:26:20;97283.06;;;10.54;23.98
47082;BME280;33066;49.296;14.470;2023-04-06T09:28:49;97284.70;;;10.64;24.07
47082;BME280;33066;49.296;14.470;2023-04-06T09:31:13;97282.78;;;11.16;23.88
47082;BME280;33066;49.296;14.470;2023-04-06T09:33:38;97279.24;;;11.29;23.13
47082;BME280;33066;49.296;14.470;2023-04-06T09:36:02;97282.26;;;11.45;23.55
47082;BME280;33066;49.296;14.470;2023-04-06T09:38:28;97280.01;;;11.62;23.05
47082;BME280;33066;49.296;14.470;2023-04-06T09:40:53;97275.98;;;11.45;21.65
47082;BME280;33066;49.296;14.470;2023-04-06T09:43:23;97274.53;;;11.61;21.74
47082;BME280;33066;49.296;14.470;2023-04-06T09:45:43;97274.62;;;11.42;21.44
47082;BME280;33066;49.296;14.470;2023-04-06T09:48:09;97273.08;;;11.87;21.85
47082;BME280;33066;49.296;14.470;2023-04-06T09:50:35;97271.72;;;11.58;21.34
47082;BME280;33066;49.296;14.470;2023-04-06T09:53:00;97267.47;;;11.78;20.97
47082;BME280;33066;49.296;14.470;2023-04-06T09:55:30;97267.41;;;11.86;21.66
47082;BME280;33066;49.296;14.470;2023-04-06T09:57:58;97262.63;;;12.22;21.62
47082;BME280;33066;49.296;14.470;2023-04-06T10:00:18;97262.37;;;11.77;21.88
47082;BME280;33066;49.296;14.470;2023-04-06T10:02:50;97263.89;;;11.78;22.08
47082;BME280;33066;49.296;14.470;2023-04-06T10:05:09;97261.81;;;11.55;22.03
47082;BME280;33066;49.296;14.470;2023-04-06T10:07:33;97255.56;;;11.41;21.86
47082;BME280;33066;49.296;14.470;2023-04-06T10:09:59;97255.57;;;11.27;21.90
47082;BME280;33066;49.296;14.470;2023-04-06T10:12:23;97254.99;;;11.22;22.44
47082;BME280;33066;49.296;14.470;2023-04-06T10:14:49;97256.84;;;11.61;21.52
47082;BME280;33066;49.296;14.470;2023-04-06T10:17:15;97252.70;;;11.95;21.26
47082;BME280;33066;49.296;14.470;2023-04-06T10:19:49;97253.12;;;12.15;20.80
47082;BME280;33066;49.296;14.470;2023-04-06T10:22:08;97250.28;;;12.49;20.05
47082;BME280;33066;49.296;14.470;2023-04-06T10:24:31;97241.98;;;12.51;20.66
47082;BME280;33066;49.296;14.470;2023-04-06T10:26:58;97245.13;;;12.34;20.56
47082;BME280;33066;49.296;14.470;2023-04-06T10:29:22;97240.52;;;12.59;20.25
47082;BME280;33066;49.296;14.470;2023-04-06T10:31:49;97239.51;;;12.60;20.41
47082;BME280;33066;49.296;14.470;2023-04-06T10:34:13;97235.72;;;12.70;20.24
47082;BME280;33066;49.296;14.470;2023-04-06T10:36:38;97230.48;;;13.50;19.87
47082;BME280;33066;49.296;14.470;2023-04-06T10:39:05;97228.35;;;13.76;20.11
47082;BME280;33066;49.296;14.470;2023-04-06T10:41:33;97226.79;;;14.46;19.45
47082;BME280;33066;49.296;14.470;2023-04-06T10:43:56;97220.16;;;14.62;18.30
47082;BME280;33066;49.296;14.470;2023-04-06T10:46:25;97219.08;;;15.19;18.45
47082;BME280;33066;49.296;14.470;2023-04-06T10:48:46;97221.50;;;15.59;17.99
47082;BME280;33066;49.296;14.470;2023-04-06T10:51:12;97217.97;;;16.12;17.64
47082;BME280;33066;49.296;14.470;2023-04-06T10:53:36;97215.81;;;16.51;17.22
47082;BME280;33066;49.296;14.470;2023-04-06T10:56:02;97212.44;;;16.73;17.25
47082;BME280;33066;49.296;14.470;2023-04-06T10:58:27;97209.48;;;16.62;17.44
47082;BME280;33066;49.296;14.470;2023-04-06T11:00:52;97206.49;;;16.56;17.95
47082;BME280;33066;49.296;14.470;2023-04-06T11:03:18;97198.67;;;16.93;17.99
47082;BME280;33066;49.296;14.470;2023-04-06T11:05:44;97200.65;;;16.37;17.55
47082;BME280;33066;49.296;14.470;2023-04-06T11:08:08;97206.86;;;15.60;18.80
47082;BME280;33066;49.296;14.470;2023-04-06T11:10:33;97204.74;;;15.09;19.62
47082;BME280;33066;49.296;14.470;2023-04-06T11:12:59;97202.95;;;14.89;20.09
47082;BME280;33066;49.296;14.470;2023-04-06T11:15:24;97204.14;;;14.58;19.44
47082;BME280;33066;49.296;14.470;2023-04-06T11:17:50;97193.32;;;15.23;19.62
47082;BME280;33066;49.296;14.470;2023-04-06T11:20:15;97193.57;;;15.43;19.32
47082;BME280;33066;49.296;14.470;2023-04-06T11:22:49;97194.64;;;16.03;18.44
47082;BME280;33066;49.296;14.470;2023-04-06T11:25:06;97195.65;;;16.36;17.80
47082;BME280;33066;49.296;14.470;2023-04-06T11:27:31;97184.94;;;16.66;17.82
47082;BME280;33066;49.296;14.470;2023-04-06T11:29:56;97187.27;;;16.22;18.02
47082;BME280;33066;49.296;14.470;2023-04-06T11:32:22;97182.35;;;17.00;18.33
47082;BME280;33066;49.296;14.470;2023-04-06T11:34:47;97173.47;;;17.16;17.27
47082;BME280;33066;49.296;14.470;2023-04-06T11:37:14;97170.82;;;17.45;17.34
47082;BME280;33066;49.296;14.470;2023-04-06T11:39:39;97167.23;;;17.53;16.73
47082;BME280;33066;49.296;14.470;2023-04-06T11:42:04;97165.22;;;17.39;16.00
47082;BME280;33066;49.296;14.470;2023-04-06T11:44:32;97160.52;;;16.75;17.36
47082;BME280;33066;49.296;14.470;2023-04-06T11:46:57;97163.32;;;16.30;17.69
47082;BME280;33066;49.296;14.470;2023-04-06T11:49:21;97162.58;;;16.18;18.07
47082;BME280;33066;49.296;14.470;2023-04-06T11:51:46;97166.36;;;16.37;18.22
47082;BME280;33066;49.296;14.470;2023-04-06T11:54:12;97159.19;;;17.17;17.86
47082;BME280;33066;49.296;14.470;2023-04-06T11:56:38;97157.04;;;17.07;17.50
47082;BME280;33066;49.296;14.470;2023-04-06T11:59:03;97156.60;;;17.15;17.07
47082;BME280;33066;49.296;14.470;2023-04-06T12:01:28;97155.75;;;16.82;17.09
47082;BME280;33066;49.296;14.470;2023-04-06T12:03:53;97157.03;;;16.31;16.37
47082;BME280;33066;49.296;14.470;2023-04-06T12:06:19;97161.91;;;16.21;16.68
47082;BME280;33066;49.296;14.470;2023-04-06T12:08:44;97150.01;;;16.91;16.48
47082;BME280;33066;49.296;14.470;2023-04-06T12:11:10;97149.84;;;17.65;15.93
47082;BME280;33066;49.296;14.470;2023-04-06T12:13:35;97138.08;;;18.05;16.04
47082;BME280;33066;49.296;14.470;2023-04-06T12:16:00;97136.77;;;18.10;15.68
47082;BME280;33066;49.296;14.470;2023-04-06T12:18:25;97140.69;;;17.63;15.93
47082;BME280;33066;49.296;14.470;2023-04-06T12:20:51;97135.84;;;18.01;16.17
47082;BME280;33066;49.296;14.470;2023-04-06T12:23:16;97135.57;;;18.15;16.46
47082;BME280;33066;49.296;14.470;2023-04-06T12:25:42;97135.83;;;17.79;16.43
47082;BME280;33066;49.296;14.470;2023-04-06T12:28:07;97139.75;;;17.21;16.31
47082;BME280;33066;49.296;14.470;2023-04-06T12:30:33;97134.21;;;17.24;16.64
47082;BME280;33066;49.296;14.470;2023-04-06T12:32:57;97131.15;;;17.09;17.01
47082;BME280;33066;49.296;14.470;2023-04-06T12:35:23;97131.10;;;17.02;17.51
47082;BME280;33066;49.296;14.470;2023-04-06T12:37:49;97133.17;;;16.84;16.80
47082;BME280;33066;49.296;14.470;2023-04-06T12:40:14;97131.30;;;17.24;16.80
47082;BME280;33066;49.296;14.470;2023-04-06T12:42:39;97120.09;;;18.59;15.98
47082;BME280;33066;49.296;14.470;2023-04-06T12:45:06;97115.62;;;19.27;14.93
47082;BME280;33066;49.296;14.470;2023-04-06T12:47:31;97108.63;;;20.28;15.05
47082;BME280;33066;49.296;14.470;2023-04-06T12:49:55;97104.75;;;20.91;14.20